createdAt,value
2023-01-13T06:49:17.203Z,28.34
2023-01-13T06:50:17.019Z,28.70
2023-01-13T06:51:17.030Z,28.99
2023-01-13T06:52:16.969Z,29.08
2023-01-13T06:53:16.940Z,29.53
2023-01-13T06:54:16.904Z,29.55
2023-01-13T06:55:16.870Z,29.73
2023-01-13T06:56:16.860Z,29.85
2023-01-13T06:57:16.807Z,30.03
2023-01-13T06:58:16.786Z,30.03
2023-01-13T06:59:16.747Z,30.08
2023-01-13T07:00:16.717Z,30.26
2023-01-13T07:01:16.848Z,30.31
2023-01-13T07:02:16.703Z,30.40
2023-01-13T07:03:16.620Z,30.54
2023-01-13T07:04:16.696Z,30.81
2023-01-13T07:05:16.553Z,30.83
2023-01-13T07:06:16.515Z,31.16
2023-01-13T07:07:16.467Z,31.33
2023-01-13T07:08:16.427Z,31.29
2023-01-13T07:09:16.415Z,31.25
2023-01-13T07:10:16.355Z,31.51
2023-01-13T07:11:16.292Z,31.51
2023-01-13T07:12:16.256Z,31.61
2023-01-13T07:13:16.231Z,31.55
2023-01-13T07:14:16.221Z,31.65
2023-01-13T07:15:16.153Z,31.80
2023-01-13T07:16:16.141Z,32.11
2023-01-13T07:17:16.070Z,32.05
2023-01-13T07:18:16.034Z,32.14
2023-01-13T07:19:15.990Z,32.12
2023-01-13T07:20:15.957Z,32.10
2023-01-13T07:21:15.924Z,32.12
2023-01-13T07:22:15.888Z,32.21
2023-01-13T07:23:15.876Z,32.24
2023-01-13T07:24:15.829Z,32.28
2023-01-13T07:25:15.772Z,32.31
2023-01-13T07:26:15.767Z,32.36
2023-01-13T07:27:15.693Z,32.40
2023-01-13T07:28:15.660Z,32.40
2023-01-13T07:29:15.628Z,32.72
2023-01-13T07:30:15.599Z,32.74
2023-01-13T07:31:15.622Z,32.40
2023-01-13T07:32:15.507Z,32.50
2023-01-13T07:33:15.465Z,32.80
2023-01-13T07:34:15.436Z,32.94
2023-01-13T07:35:15.379Z,33.05
2023-01-13T07:36:15.358Z,32.67
2023-01-13T07:37:15.309Z,32.61
2023-01-13T07:38:15.278Z,33.24
2023-01-13T07:39:15.242Z,33.19
2023-01-13T07:40:15.208Z,33.52
2023-01-13T07:41:15.139Z,33.39
2023-01-13T07:42:15.105Z,33.01
2023-01-13T07:43:15.082Z,32.73
2023-01-13T07:44:15.021Z,32.56
2023-01-13T07:45:14.976Z,32.32
2023-01-13T07:46:15.011Z,32.09
2023-01-13T07:47:14.893Z,31.93
2023-01-13T07:48:14.876Z,31.69
2023-01-13T07:49:14.817Z,31.45
2023-01-13T07:50:14.780Z,31.25
2023-01-13T07:51:14.754Z,31.04
2023-01-13T07:52:14.712Z,30.85
2023-01-13T07:53:14.655Z,30.69
2023-01-13T07:54:14.614Z,30.46
2023-01-13T07:55:14.577Z,30.34
2023-01-13T07:56:14.559Z,30.15
2023-01-13T07:57:14.507Z,30.03
2023-01-13T07:58:14.454Z,29.90
2023-01-13T07:59:14.413Z,29.72
2023-01-13T08:00:14.364Z,29.63
2023-01-13T08:01:14.478Z,29.54
2023-01-13T08:02:14.554Z,29.49
2023-01-13T08:03:14.248Z,29.37
2023-01-13T08:04:14.213Z,29.24
2023-01-13T08:05:14.167Z,29.14
2023-01-13T08:06:14.190Z,29.05
2023-01-13T08:07:14.105Z,28.98
2023-01-13T08:08:14.061Z,28.88
2023-01-13T08:09:14.002Z,28.80
2023-01-13T08:10:13.969Z,28.76
2023-01-13T08:11:13.928Z,28.65
2023-01-13T08:12:13.895Z,28.48
2023-01-13T08:13:13.835Z,28.44
2023-01-13T08:14:13.803Z,28.38
2023-01-13T08:15:13.758Z,28.32
2023-01-13T08:16:13.766Z,28.21
2023-01-13T08:17:13.674Z,28.09
2023-01-13T08:18:13.674Z,28.14
2023-01-13T08:19:13.619Z,28.18
2023-01-13T08:20:13.566Z,28.12
2023-01-13T08:21:13.504Z,28.03
2023-01-13T08:22:13.461Z,27.98
2023-01-13T08:23:13.437Z,27.95
2023-01-13T08:24:13.405Z,27.95
2023-01-13T08:25:13.361Z,27.88
2023-01-13T08:26:13.341Z,27.81
2023-01-13T08:27:13.276Z,27.82
2023-01-13T08:28:13.285Z,27.81
2023-01-13T08:29:15.037Z,27.77
2023-01-13T08:30:13.169Z,27.70
2023-01-13T08:31:13.168Z,27.75
2023-01-13T08:32:13.074Z,28.73
2023-01-13T08:33:13.073Z,29.09
2023-01-13T08:34:13.021Z,29.32
2023-01-13T08:35:12.948Z,29.68
2023-01-13T08:36:12.937Z,30.05
2023-01-13T08:37:12.879Z,30.21
2023-01-13T08:38:12.854Z,30.42
2023-01-13T08:39:12.780Z,30.49
2023-01-13T08:40:12.747Z,31.29
2023-01-13T08:41:12.721Z,31.39
2023-01-13T08:42:12.665Z,31.69
2023-01-13T08:43:12.639Z,31.83
2023-01-13T08:44:12.575Z,32.07
2023-01-13T08:45:12.529Z,32.19
2023-01-13T08:46:12.519Z,32.70
2023-01-13T08:47:12.456Z,32.82
2023-01-13T08:48:12.401Z,32.91
2023-01-13T08:49:12.354Z,32.92
2023-01-13T08:50:12.337Z,33.12
2023-01-13T08:51:12.285Z,33.18
2023-01-13T08:52:12.247Z,33.24
2023-01-13T08:53:12.216Z,33.34
2023-01-13T08:54:12.169Z,33.49
2023-01-13T08:55:12.128Z,33.61
2023-01-13T08:56:12.086Z,33.68
2023-01-13T08:57:12.085Z,33.64
2023-01-13T08:58:15.691Z,33.68
2023-01-13T08:59:11.954Z,33.76
2023-01-13T09:00:11.895Z,33.76
2023-01-13T09:01:11.946Z,33.73
2023-01-13T09:02:11.911Z,33.68
2023-01-13T09:03:11.807Z,33.67
2023-01-13T09:04:11.794Z,33.57
2023-01-13T09:05:11.716Z,33.63
2023-01-13T09:06:11.655Z,33.57
2023-01-13T09:07:11.605Z,33.58
2023-01-13T09:08:11.558Z,33.53
2023-01-13T09:09:11.527Z,33.50
2023-01-13T09:10:11.496Z,33.50
2023-01-13T09:11:11.448Z,33.52
2023-01-13T09:12:11.401Z,33.43
2023-01-13T09:13:11.358Z,33.44
2023-01-13T09:14:11.324Z,33.50
2023-01-13T09:15:11.268Z,33.47
2023-01-13T09:16:11.286Z,33.45
2023-01-13T09:17:11.196Z,33.46
2023-01-13T09:18:11.140Z,33.41
2023-01-13T09:19:11.111Z,33.42
2023-01-13T09:20:11.073Z,33.32
2023-01-13T09:21:11.022Z,33.25
2023-01-13T09:22:10.968Z,33.23
2023-01-13T09:23:11.516Z,33.17
2023-01-13T09:24:10.876Z,33.09
2023-01-13T09:25:10.836Z,33.04
2023-01-13T09:26:10.808Z,33.03
2023-01-13T09:27:10.776Z,33.03
2023-01-13T09:28:10.710Z,33.02
2023-01-13T09:29:10.705Z,33.03
2023-01-13T09:30:10.628Z,32.67
2023-01-13T09:31:10.642Z,32.94
2023-01-13T09:32:10.551Z,32.78
2023-01-13T09:33:10.514Z,32.58
2023-01-13T09:34:10.469Z,32.22
2023-01-13T09:35:10.475Z,31.96
2023-01-13T09:36:10.438Z,31.71
2023-01-13T09:37:10.384Z,31.46
2023-01-13T09:38:10.320Z,31.44
2023-01-13T09:39:10.284Z,31.34
2023-01-13T09:40:10.220Z,31.10
2023-01-13T09:41:10.187Z,30.95
2023-01-13T09:42:10.154Z,29.65
2023-01-13T09:43:10.105Z,29.33
2023-01-13T09:44:10.109Z,28.33
2023-01-13T09:45:10.023Z,28.28
2023-01-13T09:46:09.978Z,29.01
2023-01-13T09:47:09.954Z,28.45
2023-01-13T09:48:09.919Z,29.18
2023-01-13T09:49:09.889Z,30.18
2023-01-13T09:50:09.833Z,28.19
2023-01-13T09:51:09.920Z,26.65
2023-01-13T09:52:09.776Z,25.62
2023-01-13T09:53:09.747Z,25.01
2023-01-13T09:54:09.741Z,25.05
2023-01-13T09:55:09.692Z,23.38
2023-01-13T09:56:09.652Z,25.04
2023-01-13T09:57:09.628Z,24.40
2023-01-13T09:58:09.597Z,23.80
2023-01-13T09:59:09.575Z,23.78
2023-01-13T10:00:09.571Z,23.57
2023-01-13T10:01:09.541Z,23.34
2023-01-13T10:02:09.504Z,23.23
2023-01-13T10:03:09.578Z,22.98
2023-01-13T10:04:09.447Z,23.51
2023-01-13T10:05:09.504Z,23.12
2023-01-13T10:06:09.428Z,23.32
2023-01-13T10:07:09.398Z,22.73
2023-01-13T10:08:09.368Z,22.69
2023-01-13T10:09:09.385Z,24.09
2023-01-13T10:10:09.547Z,24.56
2023-01-13T10:11:09.304Z,24.97
2023-01-13T10:12:09.274Z,25.20
2023-01-13T10:13:09.242Z,25.65
2023-01-13T10:14:09.254Z,25.61
2023-01-13T10:15:09.197Z,25.67
2023-01-13T10:16:09.235Z,26.02
2023-01-13T10:17:09.169Z,26.07
2023-01-13T10:18:09.124Z,26.15
2023-01-13T10:19:09.094Z,26.41
2023-01-13T10:20:09.047Z,26.44
2023-01-13T10:21:09.019Z,26.61
2023-01-13T10:22:09.515Z,26.68
2023-01-13T10:23:08.991Z,26.78
2023-01-13T10:24:08.917Z,26.89
2023-01-13T10:47:08.046Z,30.16
2023-01-13T10:48:08.004Z,30.18
2023-01-13T10:49:08.036Z,30.15
2023-01-13T10:50:09.559Z,30.08
2023-01-13T10:51:07.910Z,29.98
2023-01-13T10:52:08.004Z,29.97
2023-01-13T10:53:07.788Z,29.96
2023-01-13T10:54:07.826Z,29.77
2023-01-13T10:55:07.711Z,29.45
2023-01-13T10:56:07.684Z,29.21
2023-01-13T10:57:07.618Z,28.83
2023-01-13T10:58:07.583Z,28.89
2023-01-13T10:59:07.565Z,28.37
2023-01-13T11:00:07.512Z,27.03
2023-01-13T11:01:07.506Z,26.35
2023-01-13T11:02:23.860Z,26.62
2023-01-13T11:03:08.407Z,27.03
2023-01-13T11:04:07.360Z,27.89
2023-01-13T11:05:08.012Z,25.94
2023-01-13T11:06:07.279Z,26.66
2023-01-13T11:07:07.233Z,26.75
2023-01-13T11:08:07.199Z,25.50
2023-01-13T11:09:07.154Z,26.20
2023-01-13T11:10:07.129Z,26.52
2023-01-13T11:11:07.084Z,26.33
2023-01-13T11:12:07.053Z,26.13
2023-01-13T11:13:07.021Z,24.80
2023-01-13T11:14:09.210Z,24.71
2023-01-13T11:15:06.958Z,25.40
2023-01-13T11:16:06.978Z,25.38
2023-01-13T11:18:06.868Z,25.57
2023-01-13T11:21:06.757Z,25.48
2023-01-13T11:22:06.744Z,24.98
2023-01-13T11:23:06.690Z,25.06
2023-01-13T11:24:06.652Z,25.76
2023-01-13T11:25:06.600Z,25.66
2023-01-13T11:29:06.468Z,26.86
2023-01-13T11:32:06.367Z,26.31
2023-01-13T11:33:06.330Z,26.38
2023-01-13T11:34:06.310Z,27.37
2023-01-13T11:35:06.255Z,27.78
2023-01-13T11:36:06.237Z,28.35
2023-01-13T11:37:06.205Z,28.66
2023-01-13T11:38:06.174Z,28.14
2023-01-13T11:40:06.109Z,28.50
2023-01-13T11:41:06.072Z,28.38
2023-01-13T11:42:06.042Z,28.15
2023-01-13T11:44:05.978Z,28.46
2023-01-13T11:45:06.011Z,28.56
2023-01-13T11:46:06.859Z,28.61
2023-01-13T11:47:05.853Z,29.01
2023-01-13T11:49:05.761Z,29.41
2023-01-13T11:51:05.677Z,30.25
2023-01-13T11:53:05.609Z,30.72
2023-01-13T11:54:05.559Z,30.48
2023-01-13T11:55:05.551Z,30.21
2023-01-13T11:56:05.465Z,30.46
2023-01-13T11:58:05.435Z,30.31
2023-01-13T11:59:05.367Z,30.18
2023-01-13T12:00:05.319Z,30.72
2023-01-13T12:01:05.319Z,30.23
2023-01-13T12:02:05.289Z,30.74
2023-01-13T12:03:05.230Z,31.09
2023-01-13T12:08:04.998Z,30.58
2023-01-13T12:09:04.951Z,30.68
2023-01-13T12:10:05.281Z,30.38
2023-01-13T12:12:04.807Z,30.34
2023-01-13T12:13:04.736Z,30.71
2023-01-13T12:14:04.708Z,29.30
2023-01-13T12:15:04.710Z,27.70
2023-01-13T12:16:04.757Z,26.95
2023-01-13T12:17:04.558Z,27.00
2023-01-13T12:18:04.602Z,26.47
2023-01-13T12:19:04.479Z,26.02
2023-01-13T12:20:04.471Z,26.03
2023-01-13T12:21:04.429Z,25.59
2023-01-13T12:22:04.373Z,25.28
2023-01-13T12:23:04.345Z,25.05
2023-01-13T12:24:04.303Z,24.69
2023-01-13T12:25:04.272Z,24.63
2023-01-13T12:26:04.249Z,25.00
2023-01-13T12:27:04.204Z,24.19
2023-01-13T12:28:04.194Z,24.26
2023-01-13T12:29:04.140Z,24.45
2023-01-13T12:30:04.120Z,25.10
2023-01-13T12:31:04.078Z,25.72
2023-01-13T12:32:04.099Z,26.32
2023-01-13T12:33:04.013Z,27.25
2023-01-13T12:34:03.984Z,27.21
2023-01-13T12:35:03.969Z,27.41
2023-01-13T12:36:03.959Z,27.09
2023-01-13T12:37:03.859Z,26.69
2023-01-13T12:38:03.821Z,26.94
2023-01-13T12:39:03.792Z,27.15
2023-01-13T12:40:03.756Z,27.05
2023-01-13T12:41:03.700Z,27.01
2023-01-13T12:42:03.661Z,26.96
2023-01-13T12:43:03.621Z,26.97
2023-01-13T12:44:03.592Z,27.31
2023-01-13T12:45:03.533Z,27.22
2023-01-13T12:46:03.579Z,27.30
2023-01-13T12:47:03.467Z,27.49
2023-01-13T12:48:03.425Z,27.36
2023-01-13T12:49:03.396Z,27.21
2023-01-13T12:50:03.371Z,27.24
2023-01-13T12:51:03.323Z,27.23
2023-01-13T12:52:03.275Z,27.24
2023-01-13T12:53:03.224Z,27.09
2023-01-13T12:54:03.189Z,27.01
2023-01-13T12:55:03.156Z,26.99
2023-01-13T12:56:03.146Z,26.93
2023-01-13T12:57:03.082Z,26.86
2023-01-13T12:58:03.029Z,26.77
2023-01-13T12:59:02.980Z,26.75
2023-01-13T13:00:02.958Z,26.61
2023-01-13T13:01:02.980Z,26.52
2023-01-13T13:02:03.070Z,26.45
2023-01-13T13:03:02.906Z,26.43
2023-01-13T13:04:02.773Z,26.37
2023-01-13T13:05:02.727Z,26.36
2023-01-13T13:06:02.696Z,26.37
2023-01-13T13:07:02.640Z,26.34
2023-01-13T13:08:02.604Z,26.30
2023-01-13T13:09:04.101Z,26.18
2023-01-13T13:10:02.515Z,26.06
2023-01-13T13:11:02.469Z,26.00
2023-01-13T13:12:02.436Z,25.97
2023-01-13T13:13:02.382Z,25.89
2023-01-13T13:14:02.344Z,25.89
2023-01-13T13:15:03.566Z,25.91
2023-01-13T13:16:02.240Z,25.87
2023-01-13T13:17:02.221Z,25.86
2023-01-13T13:18:02.150Z,25.83
2023-01-13T13:19:02.114Z,25.79
2023-01-13T13:20:02.078Z,25.75
2023-01-13T13:21:04.181Z,25.73
2023-01-13T13:22:02.077Z,25.68
2023-01-13T13:23:02.022Z,25.59
2023-01-13T13:24:01.995Z,25.54
2023-01-13T13:25:01.939Z,25.46
2023-01-13T13:26:02.961Z,25.42
2023-01-13T13:27:03.670Z,25.40
2023-01-13T13:28:01.832Z,25.39
2023-01-13T13:29:01.772Z,25.39
2023-01-13T13:30:01.758Z,25.38
2023-01-13T13:31:01.742Z,25.40
2023-01-13T13:32:01.647Z,25.39
2023-01-13T13:33:01.592Z,25.38
2023-01-13T13:34:01.561Z,25.36
2023-01-13T13:35:01.651Z,25.31
2023-01-13T13:36:01.470Z,25.31
2023-01-13T13:37:01.426Z,25.29
2023-01-13T13:38:01.367Z,25.28
2023-01-13T13:39:01.324Z,25.30
2023-01-13T13:40:01.314Z,25.27
2023-01-13T13:41:01.257Z,25.27
2023-01-13T13:42:01.204Z,25.27
2023-01-13T13:43:01.178Z,25.24
2023-01-13T13:44:01.140Z,25.21
2023-01-13T13:45:01.139Z,25.22
2023-01-13T13:46:01.120Z,25.17
2023-01-13T13:47:01.000Z,25.17
2023-01-13T13:48:00.972Z,25.17
2023-01-13T13:49:00.930Z,25.18
2023-01-13T13:50:00.875Z,25.13
2023-01-13T13:51:00.833Z,25.14
2023-01-13T13:52:00.886Z,25.14
2023-01-13T13:53:00.769Z,25.11
2023-01-13T13:54:00.739Z,25.12
2023-01-13T13:55:00.675Z,25.09
2023-01-13T13:56:00.650Z,25.08
2023-01-13T13:57:00.606Z,25.11
2023-01-13T13:58:00.540Z,25.09
2023-01-13T13:59:00.503Z,25.04
2023-01-13T14:00:00.471Z,25.08
2023-01-13T14:01:00.513Z,25.06
2023-01-13T14:02:00.486Z,25.02
2023-01-13T14:03:00.322Z,25.02
2023-01-13T14:04:00.274Z,25.00
2023-01-13T14:05:00.306Z,24.99
2023-01-13T14:06:00.206Z,25.00
2023-01-13T14:07:00.147Z,24.96
2023-01-13T14:08:00.086Z,24.95
2023-01-13T14:09:00.042Z,24.97
2023-01-13T14:10:00.034Z,24.97
2023-01-13T14:10:59.966Z,24.95
2023-01-13T14:11:59.916Z,24.94
2023-01-13T14:12:59.869Z,24.94
2023-01-13T14:13:59.941Z,24.91
2023-01-13T14:14:59.791Z,24.94
2023-01-13T14:15:59.845Z,24.90
2023-01-13T14:16:59.746Z,24.92
2023-01-13T14:17:59.684Z,24.91
2023-01-13T14:18:59.677Z,24.87
2023-01-13T14:19:59.614Z,24.86
2023-01-13T14:20:59.606Z,24.90
2023-01-13T14:22:01.758Z,24.89
2023-01-13T14:22:59.540Z,24.84
2023-01-13T14:23:59.477Z,24.87
2023-01-13T14:24:59.427Z,24.85
2023-01-13T14:25:59.401Z,24.83
2023-01-13T14:26:59.343Z,24.85
2023-01-13T14:27:59.303Z,24.85
2023-01-13T14:28:59.264Z,24.83
2023-01-13T14:29:59.227Z,24.83
2023-01-13T14:30:59.232Z,24.82
2023-01-13T14:31:59.135Z,24.81
2023-01-13T14:32:59.097Z,24.81
2023-01-13T14:33:59.057Z,24.79
2023-01-13T14:34:59.005Z,24.82
2023-01-13T14:35:58.959Z,24.81
2023-01-13T14:36:58.903Z,24.81
2023-01-13T14:37:58.868Z,24.80
2023-01-13T14:38:58.824Z,24.80
2023-01-13T14:39:58.797Z,24.82
2023-01-13T14:40:58.735Z,24.81
2023-01-13T14:41:58.694Z,24.80
2023-01-13T14:42:58.670Z,24.78
2023-01-13T14:43:58.611Z,24.77
2023-01-13T14:44:58.578Z,24.79
2023-01-13T14:45:58.580Z,24.80
2023-01-13T14:46:58.473Z,24.82
2023-01-13T14:47:58.441Z,24.82
2023-01-13T14:48:58.386Z,24.81
2023-01-13T14:49:58.357Z,24.80
2023-01-13T14:50:58.333Z,24.82
2023-01-13T14:51:58.266Z,24.81
2023-01-13T14:52:58.237Z,24.81
2023-01-13T14:53:58.193Z,24.84
2023-01-13T14:54:58.138Z,24.81
2023-01-13T14:55:58.101Z,24.82
2023-01-13T14:56:58.082Z,24.81
2023-01-13T14:57:58.018Z,24.80
2023-01-13T14:58:57.970Z,24.82
2023-01-13T14:59:57.933Z,24.84
2023-01-13T15:00:57.935Z,24.86
2023-01-13T15:01:57.953Z,24.84
2023-01-13T15:02:57.918Z,24.87
2023-01-13T15:03:57.778Z,24.84
2023-01-13T15:04:57.735Z,24.86
2023-01-13T15:05:57.725Z,24.86
2023-01-13T15:06:57.664Z,24.86
2023-01-13T15:07:57.665Z,24.86
2023-01-13T15:08:57.578Z,24.86
2023-01-13T15:09:57.557Z,24.89
2023-01-13T15:10:57.500Z,24.85
2023-01-13T15:11:57.459Z,24.86
2023-01-13T15:12:57.444Z,24.86
2023-01-13T15:13:57.378Z,24.87
2023-01-13T15:14:57.336Z,24.90
2023-01-13T15:15:57.360Z,24.87
2023-01-13T15:16:57.271Z,24.86
2023-01-13T15:17:57.268Z,24.88
2023-01-13T15:18:57.209Z,24.90
2023-01-13T15:19:57.165Z,24.89
2023-01-13T15:20:57.121Z,24.89
2023-01-13T15:21:57.078Z,24.91
2023-01-13T15:22:57.047Z,24.88
2023-01-13T15:23:57.010Z,24.92
2023-01-13T15:24:56.970Z,24.89
2023-01-13T15:25:56.949Z,24.90
2023-01-13T15:26:56.920Z,24.92
2023-01-13T15:27:56.897Z,24.90
2023-01-13T15:28:56.853Z,24.93
2023-01-13T15:29:56.815Z,24.93
2023-01-13T15:30:56.826Z,24.93
2023-01-13T15:31:56.757Z,24.93
2023-01-13T15:32:56.731Z,24.93
2023-01-13T15:33:56.695Z,24.91
2023-01-13T15:34:56.654Z,24.92
2023-01-13T15:35:56.609Z,24.90
2023-01-13T15:36:56.568Z,24.94
2023-01-13T15:37:56.538Z,24.93
2023-01-13T15:38:56.508Z,24.90
2023-01-13T15:39:56.456Z,24.89
2023-01-13T15:40:56.423Z,24.91
2023-01-13T15:41:56.378Z,24.88
2023-01-13T15:42:56.363Z,24.88
2023-01-13T15:43:56.320Z,24.89
2023-01-13T15:44:56.299Z,24.88
2023-01-13T15:45:56.237Z,24.89
2023-01-13T15:46:56.202Z,24.88
2023-01-13T15:47:56.168Z,24.88
2023-01-13T15:48:56.139Z,24.86
2023-01-13T15:49:56.109Z,24.85
2023-01-13T15:50:56.071Z,24.90
2023-01-13T15:51:56.030Z,24.87
2023-01-13T15:52:55.999Z,24.87
2023-01-13T15:53:55.965Z,24.86
2023-01-13T15:54:55.911Z,24.86
2023-01-13T15:55:55.873Z,24.85
2023-01-13T15:56:55.840Z,24.87
2023-01-13T15:57:55.805Z,24.86
2023-01-13T15:58:55.768Z,24.85
2023-01-13T15:59:55.745Z,24.84
2023-01-13T16:00:55.905Z,24.86
2023-01-13T16:01:55.662Z,24.87
2023-01-13T16:02:55.661Z,24.83
2023-01-13T16:03:56.633Z,24.86
2023-01-13T16:04:55.554Z,24.86
2023-01-13T16:05:55.521Z,24.86
2023-01-13T16:06:55.493Z,24.85
2023-01-13T16:07:55.453Z,24.83
2023-01-13T16:08:55.424Z,24.86
2023-01-13T16:09:55.390Z,24.84
2023-01-13T16:10:55.346Z,24.83
2023-01-13T16:11:55.311Z,24.86
2023-01-13T16:12:55.263Z,24.88
2023-01-13T16:13:55.229Z,24.84
2023-01-13T16:14:55.199Z,24.86
2023-01-13T16:15:56.749Z,24.85
2023-01-13T16:16:55.126Z,24.86
2023-01-13T16:17:55.095Z,24.87
2023-01-13T16:18:55.068Z,24.87
2023-01-13T16:19:55.036Z,24.88
2023-01-13T16:20:54.997Z,24.87
2023-01-13T16:21:54.948Z,24.86
2023-01-13T16:22:54.913Z,24.88
2023-01-13T16:23:54.876Z,24.85
2023-01-13T16:24:54.844Z,24.87
2023-01-13T16:25:54.818Z,24.89
2023-01-13T16:26:54.783Z,24.88
2023-01-13T16:27:54.762Z,24.88
2023-01-13T16:28:54.721Z,24.88
2023-01-13T16:29:54.695Z,24.88
2023-01-13T16:30:54.679Z,24.88
2023-01-13T16:31:54.629Z,24.86
2023-01-13T16:32:54.624Z,24.87
2023-01-13T16:33:54.595Z,24.88
2023-01-13T16:34:54.557Z,24.87
2023-01-13T16:36:10.843Z,24.90
2023-01-13T16:36:55.503Z,24.90
2023-01-13T16:37:54.454Z,24.89
2023-01-13T16:38:54.427Z,24.89
2023-01-13T16:39:54.427Z,24.92
2023-01-13T16:40:54.364Z,24.89
2023-01-13T16:41:54.336Z,24.88
2023-01-13T16:42:54.305Z,24.89
2023-01-13T16:43:54.272Z,24.87
2023-01-13T16:44:54.242Z,24.88
2023-01-13T16:45:54.244Z,24.89
2023-01-13T16:46:54.171Z,24.86
2023-01-13T16:47:54.139Z,24.87
2023-01-13T16:48:54.152Z,24.89
2023-01-13T16:49:54.085Z,24.88
2023-01-13T16:50:54.067Z,24.86
2023-01-13T16:51:54.028Z,24.88
2023-01-13T16:52:53.996Z,24.87
2023-01-13T16:53:53.961Z,24.88
2023-01-13T16:54:53.951Z,24.86
2023-01-13T16:55:53.885Z,24.85
2023-01-13T16:56:53.861Z,24.86
2023-01-13T16:57:53.867Z,24.87
2023-01-13T16:58:53.797Z,24.85
2023-01-13T16:59:53.740Z,24.84
2023-01-13T17:00:53.848Z,24.88
2023-01-13T17:01:53.829Z,24.87
2023-01-13T17:02:53.653Z,24.88
2023-01-13T17:03:53.626Z,24.87
2023-01-13T17:04:53.574Z,24.87
2023-01-13T17:05:53.542Z,24.89
2023-01-13T17:06:53.503Z,24.90
2023-01-13T17:07:53.476Z,24.87
2023-01-13T17:08:53.439Z,24.88
2023-01-13T17:09:53.410Z,24.88
2023-01-13T17:10:53.378Z,24.91
2023-01-13T17:11:53.330Z,24.92
2023-01-13T17:12:53.307Z,24.87
2023-01-13T17:13:53.274Z,24.89
2023-01-13T17:14:53.226Z,24.89
2023-01-13T17:15:53.184Z,24.91
2023-01-13T17:16:53.156Z,24.92
2023-01-13T17:17:53.120Z,24.89
2023-01-13T17:18:53.088Z,24.91
2023-01-13T17:19:53.061Z,24.92
2023-01-13T17:20:53.029Z,24.92
2023-01-13T17:21:53.000Z,24.96
2023-01-13T17:22:58.350Z,24.93
2023-01-13T17:23:53.922Z,24.93
2023-01-13T17:24:52.886Z,24.94
2023-01-13T17:25:52.854Z,24.93
2023-01-13T17:26:52.826Z,24.94
2023-01-13T17:27:52.788Z,24.92
2023-01-13T17:28:52.759Z,24.94
2023-01-13T17:29:52.713Z,24.95
2023-01-13T17:30:52.671Z,24.95
2023-01-13T17:31:52.687Z,24.96
2023-01-13T17:32:52.652Z,24.97
2023-01-13T17:33:52.560Z,24.94
2023-01-13T17:34:52.529Z,24.97
2023-01-13T17:35:52.494Z,24.94
2023-01-13T17:36:52.448Z,24.96
2023-01-13T17:37:52.402Z,24.98
2023-01-13T17:38:52.364Z,24.97
2023-01-13T17:39:52.336Z,25.00
2023-01-13T17:40:52.286Z,25.01
2023-01-13T17:41:52.245Z,25.00
2023-01-13T17:42:52.215Z,24.99
2023-01-13T17:43:52.173Z,25.00
2023-01-13T17:44:52.146Z,25.02
2023-01-13T17:45:52.161Z,25.00
2023-01-13T17:46:52.093Z,25.01
2023-01-13T17:47:52.046Z,25.02
2023-01-13T17:48:52.018Z,25.04
2023-01-13T17:49:51.985Z,25.05
2023-01-13T17:50:51.950Z,25.04
2023-01-13T17:51:51.922Z,25.06
2023-01-13T17:52:51.888Z,25.08
2023-01-13T17:53:51.859Z,25.06
2023-01-13T17:54:51.829Z,25.09
2023-01-13T17:55:51.851Z,25.07
2023-01-13T17:56:51.773Z,25.08
2023-01-13T17:57:51.737Z,25.10
2023-01-13T17:58:51.710Z,25.11
2023-01-13T17:59:51.671Z,25.11
2023-01-13T18:00:51.642Z,25.12
2023-01-13T18:01:51.642Z,25.13
2023-01-13T18:02:51.585Z,25.13
2023-01-13T18:03:51.525Z,25.13
2023-01-13T18:04:51.495Z,25.13
2023-01-13T18:05:51.469Z,25.14
2023-01-13T18:06:51.417Z,25.14
2023-01-13T18:07:51.386Z,25.17
2023-01-13T18:08:51.373Z,25.14
2023-01-13T18:09:51.352Z,25.16
2023-01-13T18:10:51.293Z,25.16
2023-01-13T18:11:51.272Z,25.18
2023-01-13T18:12:51.299Z,25.20
2023-01-13T18:13:51.189Z,25.18
2023-01-13T18:14:51.157Z,25.20
2023-01-13T18:15:51.140Z,25.19
2023-01-13T18:16:51.195Z,25.18
2023-01-13T18:17:51.067Z,25.21
2023-01-13T18:18:51.044Z,25.21
2023-01-13T18:19:50.989Z,25.22
2023-01-13T18:20:50.957Z,25.22
2023-01-13T18:21:50.925Z,25.24
2023-01-13T18:22:50.895Z,25.23
2023-01-13T18:23:50.861Z,25.23
2023-01-13T18:24:50.826Z,25.24
2023-01-13T18:25:50.773Z,25.24
2023-01-13T18:26:50.739Z,25.23
2023-01-13T18:27:50.705Z,25.24
2023-01-13T18:28:50.666Z,25.24
2023-01-13T18:29:50.638Z,25.26
2023-01-13T18:30:50.617Z,25.24
2023-01-13T18:31:50.577Z,25.28
2023-01-13T18:32:50.531Z,25.26
2023-01-13T18:33:50.506Z,25.28
2023-01-13T18:34:53.980Z,25.27
2023-01-13T18:35:51.418Z,25.28
2023-01-13T18:36:50.392Z,25.25
2023-01-13T18:37:50.345Z,25.26
2023-01-13T18:38:50.311Z,25.26
2023-01-13T18:39:50.300Z,25.29
2023-01-13T18:40:50.250Z,25.27
2023-01-13T18:41:50.212Z,25.29
2023-01-13T18:42:50.199Z,25.26
2023-01-13T18:43:50.116Z,25.28
2023-01-13T18:44:50.077Z,25.28
2023-01-13T18:45:50.101Z,25.29
2023-01-13T18:46:50.013Z,25.28
2023-01-13T18:47:49.961Z,25.29
2023-01-13T18:48:49.929Z,25.29
2023-01-13T18:49:49.875Z,25.28
2023-01-13T18:50:49.841Z,25.28
2023-01-13T18:51:49.814Z,25.33
2023-01-13T18:52:49.777Z,25.30
2023-01-13T18:53:49.734Z,25.30
2023-01-13T18:54:49.704Z,25.31
2023-01-13T18:55:49.658Z,25.32
2023-01-13T18:56:49.622Z,25.32
2023-01-13T18:57:49.602Z,25.34
2023-01-13T18:58:49.558Z,25.34
2023-01-13T18:59:49.507Z,25.37
2023-01-13T19:00:49.471Z,25.36
2023-01-13T19:01:49.561Z,25.37
2023-01-13T19:02:49.441Z,25.37
2023-01-13T19:03:49.370Z,25.40
2023-01-13T19:04:49.348Z,25.39
2023-01-13T19:05:49.295Z,25.40
2023-01-13T19:06:49.264Z,25.40
2023-01-13T19:07:49.236Z,25.38
2023-01-13T19:08:49.210Z,25.40
2023-01-13T19:09:49.158Z,25.45
2023-01-13T19:10:49.123Z,25.45
2023-01-13T19:11:49.082Z,25.45
2023-01-13T19:12:49.064Z,25.45
2023-01-13T19:13:49.034Z,25.45
2023-01-13T19:14:48.991Z,25.46
2023-01-13T19:15:48.989Z,25.48
2023-01-13T19:16:48.920Z,25.46
2023-01-13T19:17:48.906Z,25.47
2023-01-13T19:18:48.850Z,25.51
2023-01-13T19:19:48.813Z,25.48
2023-01-13T19:20:48.782Z,25.48
2023-01-13T19:21:48.746Z,25.49
2023-01-13T19:22:48.717Z,25.50
2023-01-13T19:23:48.673Z,25.50
2023-01-13T19:24:48.646Z,25.48
2023-01-13T19:25:48.619Z,25.53
2023-01-13T19:26:48.570Z,25.50
2023-01-13T19:27:48.539Z,25.51
2023-01-13T19:28:48.508Z,25.51
2023-01-13T19:29:52.528Z,25.53
2023-01-13T19:30:48.469Z,25.54
2023-01-13T19:31:48.411Z,25.52
2023-01-13T19:32:48.373Z,25.55
2023-01-13T19:33:48.334Z,25.56
2023-01-13T19:34:48.303Z,25.55
2023-01-13T19:35:48.268Z,25.56
2023-01-13T19:36:48.238Z,25.55
2023-01-13T19:37:48.244Z,25.57
2023-01-13T19:38:48.184Z,25.57
2023-01-13T19:39:48.154Z,25.59
2023-01-13T19:40:48.110Z,25.56
2023-01-13T19:41:48.082Z,25.50
2023-01-13T19:42:48.054Z,25.59
2023-01-13T19:43:48.036Z,25.58
2023-01-13T19:44:47.980Z,25.59
2023-01-13T19:45:47.947Z,25.60
2023-01-13T19:46:47.939Z,25.57
2023-01-13T19:47:47.898Z,25.59
2023-01-13T19:48:47.847Z,25.56
2023-01-13T19:49:47.819Z,25.55
2023-01-13T19:50:49.067Z,25.56
2023-01-13T19:51:47.762Z,25.54
2023-01-13T19:52:47.742Z,25.54
2023-01-13T19:53:47.726Z,25.53
2023-01-13T19:54:47.655Z,25.54
2023-01-13T19:55:47.634Z,25.50
2023-01-13T19:56:47.586Z,25.52
2023-01-13T19:57:47.603Z,25.48
2023-01-13T19:58:47.525Z,25.49
2023-01-13T19:59:47.491Z,25.49
2023-01-13T20:00:47.463Z,25.49
2023-01-13T20:01:47.486Z,25.51
2023-01-13T20:02:47.395Z,25.49
2023-01-13T20:03:47.352Z,25.49
2023-01-13T20:04:47.305Z,25.50
2023-01-13T20:05:47.277Z,25.48
2023-01-13T20:06:47.241Z,25.46
2023-01-13T20:07:47.211Z,25.47
2023-01-13T20:08:47.289Z,25.44
2023-01-13T20:09:47.145Z,25.47
2023-01-13T20:10:47.109Z,25.42
2023-01-13T20:11:47.079Z,25.42
2023-01-13T20:12:47.069Z,25.41
2023-01-13T20:13:47.031Z,25.46
2023-01-13T20:14:46.980Z,25.42
2023-01-13T20:15:46.993Z,25.39
2023-01-13T20:16:46.917Z,25.43
2023-01-13T20:17:46.884Z,25.45
2023-01-13T20:18:46.850Z,25.43
2023-01-13T20:19:46.843Z,25.46
2023-01-13T20:20:46.781Z,25.45
2023-01-13T20:21:46.750Z,25.46